Time;durP1;ratioP1;P1;durP2;ratioP2;P2;SDS_P1;SDS_P2;PMS_P1;PMS_P2;Temp;Humidity;BMP_temperature;BMP_pressure;BME280_temperature;BME280_humidity;BME280_pressure;Samples;Min_cycle;Max_cycle;Signal;HPM_P1;HPM_P2
2022/11/13 00:00:50;;;;;;;4.35;3.92;;;;;;;8.73;100.00;62893.72;4908566;29;20210;-74
2022/11/13 00:03:17;;;;;;;7.00;3.85;;;;;;;8.75;100.00;62900.88;4908095;29;20213;-72
2022/11/13 00:05:45;;;;;;;5.38;4.10;;;;;;;8.86;100.00;62909.19;4908265;29;20234;-72
2022/11/13 00:08:12;;;;;;;5.68;4.47;;;;;;;8.74;100.00;62894.25;4910563;29;20365;-72
2022/11/13 00:10:39;;;;;;;4.68;4.15;;;;;;;8.70;100.00;62893.19;4908660;29;20206;-73
2022/11/13 00:13:06;;;;;;;4.50;3.90;;;;;;;8.61;100.00;62885.91;4910713;29;20217;-72
2022/11/13 00:15:33;;;;;;;5.70;4.70;;;;;;;8.73;100.00;62898.81;4902321;29;20512;-73
2022/11/13 00:18:01;;;;;;;4.03;3.67;;;;;;;8.69;100.00;62894.69;4908696;29;20219;-73
2022/11/13 00:20:28;;;;;;;4.53;4.13;;;;;;;8.67;100.00;62890.09;4909421;29;20282;-73
2022/11/13 00:22:57;;;;;;;6.10;4.35;;;;;;;8.67;100.00;62894.63;4897195;29;20286;-73
2022/11/13 00:25:24;;;;;;;4.53;4.13;;;;;;;8.71;100.00;62894.22;4895499;29;20207;-73
2022/11/13 00:27:50;;;;;;;4.38;4.00;;;;;;;8.82;100.00;62905.06;4898243;29;20285;-72
2022/11/13 00:30:17;;;;;;;5.65;4.13;;;;;;;8.92;100.00;62915.91;4902355;29;20199;-72
2022/11/13 00:32:44;;;;;;;3.40;3.20;;;;;;;8.97;100.00;62918.03;4893126;29;20248;-72
2022/11/13 00:35:11;;;;;;;6.53;3.80;;;;;;;8.93;100.00;62916.44;4908597;29;20442;-71
2022/11/13 00:37:37;;;;;;;4.40;4.00;;;;;;;8.97;100.00;62918.03;4906890;29;20523;-72
2022/11/13 00:40:07;;;;;;;4.20;3.83;;;;;;;9.04;100.00;62930.34;4889624;29;20208;-73
2022/11/13 00:42:33;;;;;;;4.85;4.40;;;;;;;9.09;100.00;62932.97;4895868;29;20276;-72
2022/11/13 00:45:00;;;;;;;6.45;4.85;;;;;;;9.00;100.00;62924.19;4892105;29;20244;-74
2022/11/13 00:47:27;;;;;;;5.20;4.80;;;;;;;9.04;100.00;62930.84;4889594;29;20243;-73
2022/11/13 00:49:54;;;;;;;5.10;4.65;;;;;;;9.08;100.00;62931.94;4894292;29;20225;-73
2022/11/13 00:52:20;;;;;;;6.05;4.22;;;;;;;9.06;100.00;62932.91;4906232;29;20289;-72
2022/11/13 00:54:47;;;;;;;5.50;4.75;;;;;;;9.14;100.00;62935.59;4893416;29;20526;-72
2022/11/13 00:57:16;;;;;;;4.15;3.88;;;;;;;9.14;100.00;62941.19;4889080;29;20259;-72
2022/11/13 00:59:43;;;;;;;6.65;4.57;;;;;;;9.15;100.00;62939.69;4896118;29;20253;-73
2022/11/13 01:02:11;;;;;;;5.35;4.75;;;;;;;9.10;100.00;62934.00;4908021;29;20466;-72
2022/11/13 01:04:38;;;;;;;5.30;4.85;;;;;;;9.22;100.00;62946.41;4909882;29;20230;-73
2022/11/13 01:07:05;;;;;;;7.32;5.53;;;;;;;9.21;100.00;62945.38;4909055;29;20250;-73
2022/11/13 01:09:32;;;;;;;5.85;4.85;;;;;;;9.29;100.00;62954.16;4898981;29;20211;-73
2022/11/13 01:11:59;;;;;;;5.82;5.20;;;;;;;9.33;100.00;62958.31;4907011;29;20238;-73
2022/11/13 01:14:27;;;;;;;6.70;4.72;;;;;;;9.34;100.00;62959.31;4908001;29;20251;-73
2022/11/13 01:16:54;;;;;;;6.22;5.63;;;;;;;9.33;100.00;62957.78;4908780;29;20229;-73
2022/11/13 01:19:20;;;;;;;5.70;5.20;;;;;;;9.35;100.00;62964.94;4905663;29;20207;-72
2022/11/13 01:21:47;;;;;;;6.75;5.40;;;;;;;9.32;100.00;62956.75;4911079;29;20244;-73
2022/11/13 01:24:14;;;;;;;9.30;5.93;;;;;;;9.23;100.00;62950.50;4912101;29;20202;-73
2022/11/13 01:26:41;;;;;;;5.30;4.82;;;;;;;9.22;100.00;62946.94;4909450;29;20583;-72
2022/11/13 01:29:11;;;;;;;5.25;4.75;;;;;;;9.27;100.00;62954.09;4912355;29;20207;-73
2022/11/13 01:31:39;;;;;;;5.95;5.47;;;;;;;9.29;100.00;62951.09;4912693;29;20578;-73
2022/11/13 01:34:06;;;;;;;8.68;5.38;;;;;;;9.29;100.00;62954.16;4914425;29;20211;-73
2022/11/13 01:36:33;;;;;;;8.27;5.72;;;;;;;9.31;100.00;62961.31;4909645;29;20226;-72
2022/11/13 01:39:00;;;;;;;7.00;6.38;;;;;;;9.37;100.00;62964.44;4911053;29;20199;-72
2022/11/13 01:41:29;;;;;;;9.55;6.60;;;;;;;9.30;100.00;62955.19;4913467;29;20223;-73
2022/11/13 01:43:57;;;;;;;6.53;5.93;;;;;;;9.34;100.00;62958.81;4911075;29;20207;-72
2022/11/13 01:46:28;;;;;;;8.05;7.25;;;;;;;9.29;100.00;62953.63;4908775;29;20266;-72
2022/11/13 01:49:02;;;;;;;12.65;7.07;;;;;;;9.33;100.00;62962.88;4908400;29;20465;-73
2022/11/13 01:51:33;;;;;;;8.15;6.90;;;;;;;9.27;100.00;62954.63;4904144;29;20399;-73
2022/11/13 01:54:02;;;;;;;7.82;7.00;;;;;;;9.33;100.00;62960.31;4907966;29;20207;-73
2022/11/13 01:56:29;;;;;;;8.20;6.40;;;;;;;9.32;100.00;62959.28;4911387;29;20229;-72
2022/11/13 01:59:04;;;;;;;8.02;5.57;;;;;;;9.26;100.00;62955.63;4913157;29;20504;-73
2022/11/13 02:01:31;;;;;;;11.48;5.65;;;;;;;9.20;100.00;62946.88;4911836;29;20262;-73
2022/11/13 02:03:59;;;;;;;7.70;6.10;;;;;;;9.13;100.00;62942.19;4898346;29;20205;-73
2022/11/13 02:06:30;;;;;;;7.45;5.47;;;;;;;9.17;100.00;62943.78;4892920;29;20243;-74
2022/11/13 02:08:57;;;;;;;6.15;5.55;;;;;;;9.23;100.00;62947.94;4892251;29;20211;-74
2022/11/13 02:11:25;;;;;;;7.22;6.10;;;;;;;9.30;100.00;62957.22;4895469;29;20251;-72
2022/11/13 02:13:52;;;;;;;6.63;5.72;;;;;;;9.26;100.00;62951.06;4908946;29;20214;-73
2022/11/13 02:16:20;;;;;;;10.45;6.20;;;;;;;9.27;100.00;62954.09;4911160;29;20226;-74
2022/11/13 02:18:47;;;;;;;7.72;6.25;;;;;;;9.17;100.00;62943.78;4912536;29;20210;-74
2022/11/13 02:21:27;;;;;;;10.65;6.72;;;;;;;9.08;100.00;62934.47;4908032;29;20223;-73
2022/11/13 02:24:02;;;;;;;9.60;6.80;;;;;;;9.17;100.00;62941.25;4910986;29;20458;-73
2022/11/13 02:26:32;;;;;;;8.45;7.55;;;;;;;9.15;100.00;62939.16;4910341;29;20237;-73
2022/11/13 02:28:59;;;;;;;10.93;7.65;;;;;;;9.18;100.00;62942.28;4910616;29;20278;-73
2022/11/13 02:31:26;;;;;;;10.23;8.00;;;;;;;9.19;100.00;62946.38;4907863;29;20377;-73
2022/11/13 02:33:53;;;;;;;10.30;8.35;;;;;;;9.14;100.00;62941.19;4910694;29;20211;-75
2022/11/13 02:36:22;;;;;;;10.38;7.57;;;;;;;9.14;100.00;62933.59;4912387;29;20222;-74
2022/11/13 02:38:52;;;;;;;12.63;8.15;;;;;;;9.16;100.00;62942.75;4908454;29;20484;-74
2022/11/13 02:41:18;;;;;;;10.63;8.80;;;;;;;9.21;100.00;62940.28;4910256;29;20223;-73
2022/11/13 02:43:47;;;;;;;9.48;7.85;;;;;;;9.19;100.00;62946.38;4911431;29;20239;-74
2022/11/13 02:46:14;;;;;;;9.50;8.25;;;;;;;9.27;100.00;62954.09;4910895;29;20250;-74
2022/11/13 02:48:41;;;;;;;11.85;8.68;;;;;;;9.24;100.00;62949.00;4906710;29;20207;-73
2022/11/13 02:51:08;;;;;;;11.32;8.77;;;;;;;9.37;100.00;62958.88;4911269;29;20267;-74
2022/11/13 02:53:34;;;;;;;11.48;9.18;;;;;;;9.38;100.00;62965.50;4911684;29;20206;-74
2022/11/13 02:56:01;;;;;;;12.93;9.60;;;;;;;9.28;100.00;62955.66;4909932;29;20547;-73
2022/11/13 02:58:28;;;;;;;10.90;8.88;;;;;;;9.30;100.00;62954.69;4898593;29;20207;-73
2022/11/13 03:00:56;;;;;;;12.35;9.48;;;;;;;9.19;100.00;62940.75;4904575;29;20209;-72
2022/11/13 03:03:23;;;;;;;12.05;9.35;;;;;;;9.26;100.00;62953.59;4910612;29;20210;-71
2022/11/13 03:05:50;;;;;;;12.15;8.90;;;;;;;9.28;100.00;62955.16;4893544;29;20207;-73
2022/11/13 03:08:18;;;;;;;13.90;10.07;;;;;;;9.23;100.00;62947.94;4901530;29;20234;-73
2022/11/13 03:10:45;;;;;;;12.38;9.13;;;;;;;9.19;100.00;62943.84;4905879;29;20234;-73
2022/11/13 03:13:12;;;;;;;12.48;9.43;;;;;;;9.22;100.00;62949.47;4891570;29;20422;-72
2022/11/13 03:15:39;;;;;;;10.65;8.38;;;;;;;9.19;100.00;62946.38;4899981;29;20207;-74
2022/11/13 03:18:10;;;;;;;13.13;9.27;;;;;;;9.22;100.00;62949.47;4891423;29;20314;-73
2022/11/13 03:20:38;;;;;;;12.63;10.23;;;;;;;9.30;100.00;62959.78;4890883;29;20255;-73
2022/11/13 03:23:05;;;;;;;12.63;10.25;;;;;;;9.24;100.00;62946.47;4891768;29;20267;-73
2022/11/13 03:25:32;;;;;;;14.10;9.90;;;;;;;9.22;100.00;62943.88;4903667;29;20206;-73
2022/11/13 03:27:59;;;;;;;13.50;10.13;;;;;;;9.29;100.00;62956.69;4908719;29;20238;-73
2022/11/13 03:30:27;;;;;;;11.15;9.30;;;;;;;9.41;100.00;62971.13;4911029;29;20297;-72
2022/11/13 03:32:54;;;;;;;15.13;10.25;;;;;;;9.46;100.00;62976.28;4908255;29;20222;-73
2022/11/13 03:35:24;;;;;;;13.93;9.65;;;;;;;9.50;100.00;62977.38;4908795;29;20459;-73
2022/11/13 03:37:51;;;;;;;12.88;9.70;;;;;;;9.46;100.00;62970.72;4911686;29;20438;-73
2022/11/13 03:40:18;;;;;;;11.95;9.77;;;;;;;9.29;100.00;62956.69;4911202;29;20203;-72
2022/11/13 03:42:45;;;;;;;9.88;8.80;;;;;;;9.39;100.00;62966.50;4906702;29;20222;-73
2022/11/13 03:45:11;;;;;;;11.77;8.90;;;;;;;9.36;100.00;62963.41;4911732;29;20207;-73
2022/11/13 03:47:38;;;;;;;10.23;8.48;;;;;;;9.34;100.00;62961.34;4908338;29;20244;-73
2022/11/13 03:50:06;;;;;;;11.48;10.00;;;;;;;9.34;100.00;62956.28;4908469;29;20247;-72
2022/11/13 03:52:34;;;;;;;11.27;9.30;;;;;;;9.30;100.00;62960.28;4909044;29;20251;-75
2022/11/13 03:55:01;;;;;;;13.82;8.82;;;;;;;9.27;100.00;62951.56;4906507;29;20243;-72
2022/11/13 03:57:28;;;;;;;11.57;9.10;;;;;;;9.26;100.00;62953.59;4890109;29;20219;-73
2022/11/13 03:59:55;;;;;;;13.05;9.30;;;;;;;9.18;100.00;62942.78;4894256;29;20236;-73
2022/11/13 04:02:21;;;;;;;14.15;9.35;;;;;;;9.15;100.00;62939.69;4908650;29;20238;-72
2022/11/13 04:04:48;;;;;;;13.02;9.73;;;;;;;9.19;100.00;62950.94;4907899;29;20213;-74
2022/11/13 04:07:15;;;;;;;12.18;9.25;;;;;;;9.17;100.00;62938.69;4908680;29;20238;-73
2022/11/13 04:09:43;;;;;;;11.80;9.30;;;;;;;9.13;100.00;62937.09;4908725;29;20325;-73
2022/11/13 04:12:10;;;;;;;15.13;10.30;;;;;;;9.11;100.00;62932.50;4908954;29;20222;-73
2022/11/13 04:14:37;;;;;;;13.50;10.88;;;;;;;9.17;100.00;62946.84;4909415;29;20284;-74
2022/11/13 04:17:04;;;;;;;14.10;9.85;;;;;;;9.10;100.00;62936.53;4898718;29;20226;-73
2022/11/13 04:19:30;;;;;;;12.45;9.48;;;;;;;9.23;100.00;62944.91;4900532;29;20540;-72
2022/11/13 04:21:57;;;;;;;14.20;10.45;;;;;;;9.21;100.00;62945.38;4908258;29;20461;-71
2022/11/13 04:24:24;;;;;;;13.80;10.02;;;;;;;9.27;100.00;62952.09;4908948;29;20238;-73
2022/11/13 04:26:52;;;;;;;14.77;10.77;;;;;;;9.15;100.00;62942.22;4899233;29;20275;-72
2022/11/13 04:29:19;;;;;;;14.25;10.60;;;;;;;9.24;100.00;62948.47;4891495;29;20250;-73
2022/11/13 04:31:46;;;;;;;15.95;11.38;;;;;;;9.21;100.00;62948.41;4892142;29;20272;-74
2022/11/13 04:34:13;;;;;;;14.88;10.30;;;;;;;9.15;100.00;62947.31;4907561;29;20520;-73
2022/11/13 04:36:40;;;;;;;15.70;10.82;;;;;;;9.11;100.00;62935.03;4894530;29;20264;-74
2022/11/13 04:39:07;;;;;;;14.50;10.75;;;;;;;9.19;100.00;62943.31;4910250;29;20198;-74
2022/11/13 04:44:19;;;;;;;14.52;10.90;;;;;;;9.02;100.00;62928.81;4909182;29;20526;-73
2022/11/13 04:46:46;;;;;;;13.95;11.02;;;;;;;9.05;100.00;62928.84;4907360;29;20227;-73
2022/11/13 04:49:13;;;;;;;17.88;11.90;;;;;;;9.08;100.00;62931.94;4909523;29;20250;-73
2022/11/13 04:51:40;;;;;;;16.40;11.70;;;;;;;9.05;100.00;62928.84;4907048;29;20441;-72
2022/11/13 04:54:07;;;;;;;17.77;10.90;;;;;;;9.03;100.00;62932.38;4904478;29;20203;-72
2022/11/13 04:56:33;;;;;;;16.50;11.93;;;;;;;9.02;100.00;62928.28;4894134;29;20397;-73
2022/11/13 04:59:00;;;;;;;15.88;12.30;;;;;;;9.04;100.00;62925.28;4890563;29;20555;-73
2022/11/13 05:01:28;;;;;;;18.08;12.13;;;;;;;8.98;100.00;62924.13;4906797;29;20222;-73
2022/11/13 05:03:55;;;;;;;16.50;12.88;;;;;;;9.07;100.00;62933.44;4907189;29;20250;-73
2022/11/13 05:06:22;;;;;;;18.60;11.63;;;;;;;9.03;100.00;62929.81;4908358;29;20254;-73
2022/11/13 05:08:49;;;;;;;17.88;11.40;;;;;;;9.07;100.00;62933.44;4906379;29;20241;-73
2022/11/13 05:11:18;;;;;;;18.17;13.43;;;;;;;9.11;100.00;62940.63;4895860;29;20231;-75
2022/11/13 05:13:45;;;;;;;20.00;13.60;;;;;;;9.12;100.00;62936.06;4894379;29;20204;-74
2022/11/13 05:16:17;;;;;;;18.00;12.32;;;;;;;9.03;100.00;62924.22;4895105;29;20223;-75
2022/11/13 05:18:47;;;;;;;18.77;12.57;;;;;;;9.09;100.00;62933.47;4904820;29;20207;-76
2022/11/13 05:21:19;;;;;;;19.73;14.15;;;;;;;8.98;100.00;62921.59;4914194;29;20219;-75
2022/11/13 05:23:47;;;;;;;20.90;13.27;;;;;;;9.04;100.00;62928.31;4889870;29;20219;-73
2022/11/13 05:26:16;;;;;;;23.33;14.70;;;;;;;9.11;100.00;62938.09;4889333;29;20250;-74
2022/11/13 05:28:45;;;;;;;22.92;15.35;;;;;;;9.08;100.00;62935.00;4903163;29;20238;-73
2022/11/13 05:31:14;;;;;;;20.77;14.30;;;;;;;9.11;100.00;62937.59;4909189;29;20223;-73
2022/11/13 05:33:43;;;;;;;21.95;13.80;;;;;;;9.21;100.00;62943.34;4899616;29;20205;-73
2022/11/13 05:36:14;;;;;;;21.60;14.88;;;;;;;9.16;100.00;62940.72;4903117;29;20263;-74
2022/11/13 05:38:42;;;;;;;22.02;14.25;;;;;;;9.10;100.00;62936.53;4908143;29;20215;-75
2022/11/13 05:41:11;;;;;;;22.67;15.02;;;;;;;9.12;100.00;62936.06;4907352;29;20287;-73
2022/11/13 05:43:39;;;;;;;29.92;18.60;;;;;;;9.11;100.00;62938.09;4909722;29;20202;-74
2022/11/13 05:46:09;;;;;;;27.48;16.50;;;;;;;9.10;100.00;62934.00;4909316;29;20560;-76
2022/11/13 05:48:37;;;;;;;22.33;15.70;;;;;;;9.14;100.00;62938.13;4905749;29;20329;-72
2022/11/13 05:51:06;;;;;;;22.52;14.23;;;;;;;9.18;100.00;62944.81;4904805;29;20222;-75
2022/11/13 05:53:36;;;;;;;22.90;15.10;;;;;;;9.18;100.00;62942.28;4909601;29;20227;-76
2022/11/13 05:56:05;;;;;;;27.85;15.27;;;;;;;9.05;100.00;62931.91;4902284;29;20290;-74
2022/11/13 05:58:34;;;;;;;21.38;13.82;;;;;;;9.12;100.00;62938.59;4906740;29;20203;-76
2022/11/13 06:01:13;;;;;;;21.95;15.38;;;;;;;9.14;100.00;62938.66;4909746;29;20227;-75
2022/11/13 06:03:41;;;;;;;24.17;14.07;;;;;;;8.93;100.00;62921.50;4896921;29;20210;-74
2022/11/13 06:06:11;;;;;;;22.23;15.32;;;;;;;8.99;100.00;62920.09;4892378;29;20231;-75
2022/11/13 06:08:41;;;;;;;28.45;16.92;;;;;;;8.98;100.00;62924.13;4896605;29;20362;-73
2022/11/13 06:11:11;;;;;;;24.98;15.77;;;;;;;9.01;100.00;62922.16;4893612;29;20219;-73
2022/11/13 06:13:39;;;;;;;23.55;15.52;;;;;;;9.03;100.00;62926.75;4897004;29;20313;-75
2022/11/13 06:16:10;;;;;;;26.08;17.13;;;;;;;9.07;100.00;62936.50;4907618;29;20262;-75
2022/11/13 06:18:39;;;;;;;24.98;15.23;;;;;;;9.14;100.00;62938.13;4911924;29;20211;-74
2022/11/13 06:21:07;;;;;;;26.02;16.33;;;;;;;9.08;100.00;62931.94;4909959;29;20226;-73
2022/11/13 06:23:36;;;;;;;21.70;15.27;;;;;;;9.16;100.00;62942.75;4910374;29;20203;-74
2022/11/13 06:26:06;;;;;;;22.88;14.85;;;;;;;9.21;100.00;62950.97;4902231;29;20287;-73
2022/11/13 06:28:33;;;;;;;26.00;15.27;;;;;;;9.09;100.00;62933.47;4908449;29;20282;-73
2022/11/13 06:31:04;;;;;;;23.50;15.63;;;;;;;9.25;100.00;62952.03;4898864;29;20515;-76
2022/11/13 06:33:31;;;;;;;22.25;13.93;;;;;;;9.25;100.00;62954.56;4900315;29;20212;-74
2022/11/13 06:36:00;;;;;;;21.45;14.48;;;;;;;9.30;100.00;62952.66;4913130;29;20218;-74
2022/11/13 06:38:30;;;;;;;21.92;14.20;;;;;;;9.41;100.00;62962.97;4900640;29;20246;-74
2022/11/13 06:40:57;;;;;;;21.92;14.80;;;;;;;9.33;100.00;62958.31;4916376;29;20268;-73
2022/11/13 06:43:32;;;;;;;24.77;16.70;;;;;;;9.44;100.00;62974.22;4910106;29;20207;-74
2022/11/13 06:45:59;;;;;;;25.15;15.85;;;;;;;9.53;100.00;62981.00;4909601;29;20247;-75
2022/11/13 06:48:26;;;;;;;26.65;15.50;;;;;;;9.64;100.00;62992.38;4904072;29;20242;-75
2022/11/13 06:50:53;;;;;;;22.15;14.65;;;;;;;9.69;100.00;63000.09;4911722;29;20483;-74
2022/11/13 06:53:20;;;;;;;22.55;14.10;;;;;;;9.60;100.00;62988.22;4911244;29;20531;-77
2022/11/13 06:55:50;;;;;;;24.48;14.05;;;;;;;9.72;100.00;62995.03;4897587;29;20530;-73
2022/11/13 06:58:17;;;;;;;30.67;15.95;;;;;;;9.81;100.00;63006.91;4909183;29;20207;-75
2022/11/13 07:00:45;;;;;;;26.35;16.00;;;;;;;9.86;100.00;63009.53;4910681;29;20437;-73
2022/11/13 07:03:17;;;;;;;28.95;16.73;;;;;;;9.73;100.00;63001.16;4905668;29;20287;-74
2022/11/13 07:05:44;;;;;;;25.83;16.52;;;;;;;9.73;100.00;63001.69;4893389;29;20218;-74
2022/11/13 07:08:11;;;;;;;24.65;14.82;;;;;;;9.71;100.00;62999.09;4910531;29;20234;-75
2022/11/13 07:10:38;;;;;;;20.38;15.20;;;;;;;9.78;100.00;63004.31;4909059;29;20244;-74
2022/11/13 07:13:06;;;;;;;22.33;15.07;;;;;;;9.80;100.00;63010.94;4904271;29;20206;-74
2022/11/13 07:15:34;;;;;;;23.35;15.38;;;;;;;9.86;100.00;63012.59;4905612;29;20207;-74
2022/11/13 07:18:03;;;;;;;19.83;14.05;;;;;;;9.96;100.00;63027.50;4908801;29;20306;-73
2022/11/13 07:20:30;;;;;;;21.35;14.25;;;;;;;9.92;100.00;63018.78;4907609;29;20202;-74
2022/11/13 07:22:57;;;;;;;21.10;13.98;;;;;;;9.77;100.00;63002.75;4902072;29;20246;-74
2022/11/13 07:25:24;;;;;;;22.75;14.95;;;;;;;9.81;100.00;63009.44;4904520;29;20207;-74
2022/11/13 07:27:51;;;;;;;23.40;14.93;;;;;;;9.68;100.00;62993.97;4907831;29;20242;-74
2022/11/13 07:30:18;;;;;;;22.60;15.18;;;;;;;9.67;100.00;62994.94;4916545;29;20206;-75
2022/11/13 07:32:45;;;;;;;27.38;16.80;;;;;;;9.70;100.00;62998.06;4899908;29;20230;-75
2022/11/13 07:35:15;;;;;;;24.17;15.27;;;;;;;9.79;100.00;63007.88;4907186;29;20225;-73
2022/11/13 07:37:42;;;;;;;22.10;14.77;;;;;;;10.01;100.00;63030.13;4903427;29;20410;-75
2022/11/13 07:40:10;;;;;;;22.30;15.02;;;;;;;10.10;100.00;63037.44;4904051;29;20206;-74
2022/11/13 07:42:37;;;;;;;24.50;16.20;;;;;;;10.20;100.00;63049.78;4902197;29;20223;-74
2022/11/13 07:45:05;;;;;;;22.45;14.57;;;;;;;10.22;100.00;63049.84;4902468;29;20206;-74
2022/11/13 07:47:32;;;;;;;24.17;16.05;;;;;;;10.31;100.00;63058.63;4908767;29;20226;-74
2022/11/13 07:49:59;;;;;;;25.85;14.93;;;;;;;10.35;100.00;63065.31;4899575;29;20373;-75
2022/11/13 07:52:27;;;;;;;22.05;14.57;;;;;;;10.45;100.00;63076.19;4904245;29;20233;-74
2022/11/13 07:54:54;;;;;;;18.90;13.82;;;;;;;10.41;100.00;63072.06;4906761;29;20246;-75
2022/11/13 07:57:21;;;;;;;17.83;13.38;;;;;;;10.39;100.00;63066.91;4891296;29;20223;-73
2022/11/13 07:59:48;;;;;;;21.77;14.68;;;;;;;10.51;100.00;63076.78;4904472;29;20254;-75
2022/11/13 08:02:16;;;;;;;22.67;14.43;;;;;;;10.44;100.00;63077.16;4908904;29;20569;-74
2022/11/13 08:04:43;;;;;;;19.42;13.68;;;;;;;10.45;100.00;63073.66;4910327;29;20206;-74
2022/11/13 08:07:12;;;;;;;19.83;14.13;;;;;;;10.55;100.00;63085.50;4906817;29;20264;-75
2022/11/13 08:09:40;;;;;;;20.30;14.98;;;;;;;10.64;100.00;63092.78;4908035;29;20238;-73
2022/11/13 08:12:07;;;;;;;21.55;13.80;;;;;;;10.72;100.00;63103.09;4910122;29;20215;-74
2022/11/13 08:14:34;;;;;;;19.98;13.88;;;;;;;10.72;100.00;63101.06;4909769;29;20233;-74
2022/11/13 08:17:01;;;;;;;17.98;14.25;;;;;;;10.81;100.00;63112.41;4907944;29;20275;-74
2022/11/13 08:19:28;;;;;;;20.48;13.25;;;;;;;10.64;100.00;63092.28;4908775;29;20207;-73
2022/11/13 08:21:55;;;;;;;21.85;13.95;;;;;;;10.75;100.00;63098.56;4908443;29;20591;-73
2022/11/13 08:24:21;;;;;;;19.73;13.45;;;;;;;10.74;100.00;63105.16;4908636;29;20563;-74
2022/11/13 08:26:50;;;;;;;21.60;13.73;;;;;;;10.84;100.00;63118.59;4907753;29;20227;-75
2022/11/13 08:29:17;;;;;;;19.63;13.63;;;;;;;10.81;100.00;63112.94;4908607;29;20234;-74
2022/11/13 08:31:43;;;;;;;19.67;15.23;;;;;;;10.98;100.00;63135.09;4908881;29;20270;-74
2022/11/13 08:34:10;;;;;;;16.90;13.05;;;;;;;11.03;100.00;63135.72;4907138;29;20409;-74
2022/11/13 08:36:37;;;;;;;24.58;15.38;;;;;;;10.92;100.00;63123.81;4907611;29;20226;-75
2022/11/13 08:39:04;;;;;;;20.65;14.73;;;;;;;10.91;100.00;63125.31;4908579;29;20207;-74
2022/11/13 08:41:31;;;;;;;23.40;14.82;;;;;;;10.96;100.00;63127.97;4908852;29;20219;-75
2022/11/13 08:43:59;;;;;;;19.08;14.18;;;;;;;11.11;100.00;63146.03;4906852;29;20287;-75
2022/11/13 08:46:26;;;;;;;22.15;15.10;;;;;;;11.19;100.00;63149.22;4907298;29;20578;-74
2022/11/13 08:48:53;;;;;;;27.95;17.27;;;;;;;11.31;99.98;63161.63;4908726;29;20238;-75
2022/11/13 08:51:20;;;;;;;25.33;15.48;;;;;;;11.22;98.92;63152.31;4909757;29;20247;-76
2022/11/13 08:53:47;;;;;;;26.33;17.75;;;;;;;11.30;100.00;63165.72;4907623;29;20271;-75
2022/11/13 08:56:14;;;;;;;24.95;16.75;;;;;;;11.28;99.21;63161.09;4906923;29;20267;-74
2022/11/13 08:58:41;;;;;;;20.77;15.55;;;;;;;11.12;99.55;63142.47;4895536;29;20223;-73
2022/11/13 09:01:09;;;;;;;22.00;15.43;;;;;;;10.91;100.00;63122.75;4890094;29;20219;-74
2022/11/13 09:03:36;;;;;;;19.45;13.80;;;;;;;10.80;100.00;63111.91;4894091;29;20215;-75
2022/11/13 09:06:05;;;;;;;20.15;14.57;;;;;;;10.91;100.00;63122.75;4906896;29;20229;-74
2022/11/13 09:08:32;;;;;;;17.65;13.93;;;;;;;10.80;100.00;63111.91;4890424;29;20255;-76
2022/11/13 09:11:03;;;;;;;19.75;14.27;;;;;;;11.01;100.00;63133.13;4889616;29;20574;-75
2022/11/13 09:13:29;;;;;;;18.67;14.48;;;;;;;11.27;99.29;63163.09;4899240;29;20391;-74
2022/11/13 09:15:58;;;;;;;18.05;13.20;;;;;;;11.50;97.09;63186.94;4908317;29;20226;-74
2022/11/13 09:18:26;;;;;;;21.88;14.20;;;;;;;11.69;96.83;63208.16;4908985;29;20202;-74
2022/11/13 09:20:53;;;;;;;23.17;14.73;;;;;;;11.63;96.10;63194.78;4908607;29;20503;-75
2022/11/13 09:23:21;;;;;;;22.25;14.07;;;;;;;11.89;96.14;63224.28;4905336;29;20206;-75
2022/11/13 09:25:48;;;;;;;21.50;14.48;;;;;;;12.12;95.97;63245.56;4908925;29;20202;-74
2022/11/13 09:28:15;;;;;;;21.08;15.02;;;;;;;12.32;93.56;63276.50;4907930;29;20230;-75
2022/11/13 09:30:42;;;;;;;20.08;14.25;;;;;;;12.33;91.67;63269.91;4902830;29;20207;-75
2022/11/13 09:33:14;;;;;;;16.83;13.77;;;;;;;12.51;91.09;63288.06;4896663;29;20571;-76
2022/11/13 09:35:44;;;;;;;17.38;12.93;;;;;;;12.69;91.06;63309.25;4908854;29;20395;-75
2022/11/13 09:38:12;;;;;;;21.52;14.73;;;;;;;12.70;90.66;63308.25;4889950;29;20207;-74
2022/11/13 09:40:46;;;;;;;19.63;14.25;;;;;;;12.47;90.52;63278.78;4901094;29;20203;-75
2022/11/13 09:43:23;;;;;;;23.08;15.30;;;;;;;12.41;90.09;63278.19;4904682;29;20255;-76
2022/11/13 09:45:54;;;;;;;21.70;14.10;;;;;;;12.61;92.20;63296.38;4895228;29;20247;-76
2022/11/13 09:48:26;;;;;;;23.27;15.63;;;;;;;12.99;89.51;63337.81;4894053;29;20226;-75
2022/11/13 09:50:55;;;;;;;17.00;13.77;;;;;;;13.10;87.89;63346.69;4904397;29;20522;-74
2022/11/13 09:53:22;;;;;;;19.60;13.93;;;;;;;13.33;85.98;63373.09;4911009;29;20203;-76
2022/11/13 09:55:58;;;;;;;19.10;13.52;;;;;;;13.45;84.73;63382.47;4911218;29;20199;-74
2022/11/13 09:58:31;;;;;;;17.10;13.65;;;;;;;13.59;84.99;63394.97;4908786;29;20210;-74
2022/11/13 10:01:00;;;;;;;17.70;13.15;;;;;;;13.06;85.40;63339.47;4911238;29;20223;-75
2022/11/13 10:03:36;;;;;;;19.58;13.95;;;;;;;13.21;86.30;63358.09;4910814;29;20206;-73
2022/11/13 10:06:14;;;;;;;20.45;14.48;;;;;;;13.31;85.79;63367.94;4909373;29;20399;-74
2022/11/13 10:08:50;;;;;;;20.35;15.50;;;;;;;13.48;85.32;63388.66;4895608;29;20441;-75
2022/11/13 10:11:23;;;;;;;19.60;13.95;;;;;;;13.41;85.13;63378.31;4892537;29;20226;-74
2022/11/13 10:13:53;;;;;;;19.10;14.30;;;;;;;13.54;83.82;63400.03;4892479;29;20496;-74
2022/11/13 10:16:30;;;;;;;19.85;14.57;;;;;;;13.54;82.89;63389.25;4907879;29;20233;-75
2022/11/13 10:19:06;;;;;;;19.98;14.48;;;;;;;13.61;83.30;63399.59;4910886;29;20301;-75
2022/11/13 10:21:39;;;;;;;18.55;14.75;;;;;;;13.38;83.51;63377.78;4910509;29;20262;-73
2022/11/13 10:24:25;;;;;;;18.02;13.52;;;;;;;13.19;85.51;63358.59;4908866;29;20202;-76
2022/11/13 10:26:55;;;;;;;21.35;16.23;;;;;;;13.21;85.50;63367.81;4909801;29;20223;-76
2022/11/13 10:29:21;;;;;;;21.05;15.48;;;;;;;12.98;87.18;63339.34;4901197;29;20242;-74
2022/11/13 10:31:50;;;;;;;23.27;16.20;;;;;;;12.90;87.89;63328.47;4906378;29;20290;-75
2022/11/13 10:34:18;;;;;;;28.02;18.40;;;;;;;12.64;88.37;63304.59;4905620;29;20275;-74
2022/11/13 10:37:03;;;;;;;25.85;17.77;;;;;;;12.63;88.23;63297.94;4910473;29;20270;-75
2022/11/13 10:39:30;;;;;;;22.42;15.93;;;;;;;12.44;91.00;63280.78;4901837;29;20202;-74
2022/11/13 10:41:58;;;;;;;21.10;16.60;;;;;;;12.48;89.29;63282.91;4902753;29;20230;-76
2022/11/13 10:44:25;;;;;;;23.98;18.15;;;;;;;12.65;87.42;63302.53;4898700;29;20206;-76
2022/11/13 10:47:05;;;;;;;25.05;17.42;;;;;;;12.68;86.86;63311.28;4908665;29;20404;-75
2022/11/13 10:49:31;;;;;;;20.92;15.02;;;;;;;12.63;85.57;63300.50;4909925;29;20246;-76
2022/11/13 10:52:01;;;;;;;21.63;15.60;;;;;;;12.84;86.12;63324.81;4906546;29;20263;-76
2022/11/13 10:54:30;;;;;;;20.02;14.95;;;;;;;12.77;86.32;63312.44;4907771;29;20234;-75
2022/11/13 10:56:59;;;;;;;19.98;15.63;;;;;;;12.53;86.71;63288.06;4903222;29;20254;-75
2022/11/13 10:59:26;;;;;;;34.53;22.42;;;;;;;12.80;87.80;63318.13;4908839;29;20246;-75
2022/11/13 11:01:53;;;;;;;21.23;15.77;;;;;;;13.03;87.16;63336.88;4906157;29;20233;-75
2022/11/13 11:04:26;;;;;;;23.30;17.17;;;;;;;13.01;86.00;63339.88;4909890;29;20434;-76
2022/11/13 11:06:53;;;;;;;22.90;16.73;;;;;;;12.97;85.36;63333.19;4902552;29;20465;-75
2022/11/13 11:09:30;;;;;;;24.38;18.13;;;;;;;13.09;85.29;63345.66;4908841;29;20242;-74
2022/11/13 11:12:18;;;;;;;20.92;15.00;;;;;;;12.84;85.68;63319.19;4904781;29;20410;-75
2022/11/13 11:15:02;;;;;;;24.02;16.70;;;;;;;12.99;85.19;63334.75;4897260;29;20270;-74
2022/11/13 11:17:35;;;;;;;22.77;16.00;;;;;;;12.24;89.34;63262.59;4910043;29;20293;-74
2022/11/13 11:20:07;;;;;;;18.90;14.32;;;;;;;12.30;88.34;63266.78;4906142;29;20239;-75
2022/11/13 11:22:38;;;;;;;20.25;15.45;;;;;;;12.38;89.27;63275.09;4909875;29;20226;-74
2022/11/13 11:25:10;;;;;;;24.13;15.73;;;;;;;12.67;88.12;63307.69;4907198;29;20195;-74
2022/11/13 11:27:43;;;;;;;23.95;16.30;;;;;;;12.80;85.93;63318.63;4908873;29;20222;-75
2022/11/13 11:30:19;;;;;;;19.83;15.40;;;;;;;12.87;85.50;63324.84;4910404;29;20239;-75